createdAt,value
2019-05-14T00:02:21.444Z,8.78
2019-05-14T00:04:52.117Z,7.92
2019-05-14T00:07:23.230Z,8.38
2019-05-14T00:09:54.982Z,8.55
2019-05-14T00:12:26.070Z,7.67
2019-05-14T00:14:57.263Z,7.80
2019-05-14T00:17:28.839Z,8.55
2019-05-14T00:20:07.392Z,8.80
2019-05-14T00:22:32.193Z,8.68
2019-05-14T00:25:03.714Z,8.15
2019-05-14T00:27:34.978Z,8.45
2019-05-14T00:30:07.328Z,9.55
2019-05-14T00:32:38.490Z,9.58
2019-05-14T00:35:11.155Z,9.90
2019-05-14T00:37:42.286Z,10.88
2019-05-14T00:40:13.762Z,10.25
2019-05-14T00:42:45.072Z,10.40
2019-05-14T00:45:17.194Z,10.35
2019-05-14T00:47:48.429Z,10.03
2019-05-14T00:50:21.460Z,9.63
2019-05-14T00:52:52.233Z,11.57
2019-05-14T00:55:23.148Z,11.03
2019-05-14T00:57:54.415Z,10.68
2019-05-14T01:00:25.558Z,9.38
2019-05-14T01:02:56.880Z,9.80
2019-05-14T01:05:27.844Z,9.75
2019-05-14T01:07:58.947Z,10.82
2019-05-14T01:10:31.373Z,11.80
2019-05-14T01:13:04.016Z,10.18
2019-05-14T01:15:35.273Z,9.15
2019-05-14T01:18:11.306Z,9.00
2019-05-14T01:20:43.030Z,9.05
2019-05-14T01:23:21.687Z,9.00
2019-05-14T01:25:52.380Z,9.83
2019-05-14T01:28:24.426Z,9.23
2019-05-14T01:30:56.929Z,9.28
2019-05-14T01:33:32.529Z,10.98
2019-05-14T01:36:03.623Z,10.50
2019-05-14T01:38:34.352Z,11.95
2019-05-14T01:41:06.305Z,11.57
2019-05-14T01:43:39.009Z,10.88
2019-05-14T01:59:17.417Z,7.92
2019-05-14T02:01:51.711Z,8.50
2019-05-14T02:04:28.688Z,8.25
2019-05-14T02:07:16.585Z,8.93
2019-05-14T02:09:47.150Z,8.83
2019-05-14T02:12:22.472Z,7.60
2019-05-14T02:15:08.742Z,7.90
2019-05-14T02:17:43.463Z,7.67
2019-05-14T02:20:21.407Z,8.55
2019-05-14T02:22:53.478Z,7.70
2019-05-14T02:25:29.285Z,7.33
2019-05-14T02:28:01.646Z,6.90
2019-05-14T02:30:51.179Z,7.50
2019-05-14T02:33:09.370Z,7.87
2019-05-14T02:35:42.036Z,7.65
2019-05-14T02:38:19.175Z,7.78
2019-05-14T02:40:49.902Z,10.10
2019-05-14T02:43:22.396Z,7.50
2019-05-14T02:46:09.100Z,7.65
2019-05-14T02:48:29.766Z,7.05
2019-05-14T02:51:00.837Z,6.83
2019-05-14T02:53:38.884Z,6.70
2019-05-14T02:56:10.391Z,6.47
2019-05-14T02:58:41.525Z,5.95
2019-05-14T03:01:14.304Z,5.70
2019-05-14T03:03:49.567Z,5.92
2019-05-14T03:06:21.099Z,5.62
2019-05-14T03:08:52.419Z,6.80
2019-05-14T03:11:23.739Z,6.40
2019-05-14T03:13:54.741Z,6.10
2019-05-14T03:16:31.057Z,6.90
2019-05-14T03:19:00.826Z,6.50
2019-05-14T03:21:31.594Z,6.67
2019-05-14T03:24:02.876Z,6.10
2019-05-14T03:26:33.882Z,6.40
2019-05-14T03:29:05.127Z,6.55
2019-05-14T03:31:36.327Z,7.17
2019-05-14T03:34:12.654Z,6.72
2019-05-14T03:36:42.985Z,7.55
2019-05-14T03:39:13.020Z,8.38
2019-05-14T03:41:44.987Z,7.53
2019-05-14T03:47:39.388Z,7.00
2019-05-14T03:50:11.413Z,7.30
2019-05-14T03:52:43.095Z,9.40
2019-05-14T03:55:14.519Z,8.15
2019-05-14T03:57:45.659Z,8.68
2019-05-14T04:00:18.830Z,7.80
2019-05-14T04:02:50.428Z,8.10
2019-05-14T04:05:22.682Z,7.10
2019-05-14T04:07:55.119Z,7.62
2019-05-14T04:10:30.114Z,7.12
2019-05-14T04:13:02.157Z,7.10
2019-05-14T04:15:39.151Z,6.62
2019-05-14T04:18:15.332Z,7.85
2019-05-14T04:20:50.018Z,8.03
2019-05-14T04:23:21.615Z,7.12
2019-05-14T04:25:54.625Z,6.80
2019-05-14T04:31:42.266Z,6.28
2019-05-14T04:34:19.320Z,6.85
2019-05-14T04:36:50.281Z,6.45
2019-05-14T04:39:25.155Z,5.65
2019-05-14T04:48:27.066Z,6.53
2019-05-14T04:50:49.310Z,8.08
2019-05-14T04:53:22.459Z,6.80
2019-05-14T04:55:54.165Z,7.10
2019-05-14T04:58:25.519Z,6.45
2019-05-14T05:01:01.055Z,6.03
2019-05-14T05:03:40.820Z,6.25
2019-05-14T05:06:12.183Z,7.05
2019-05-14T05:08:43.154Z,6.33
2019-05-14T05:11:17.126Z,5.90
2019-05-14T05:13:48.817Z,5.95
2019-05-14T05:16:23.227Z,6.12
2019-05-14T05:18:54.954Z,6.30
2019-05-14T05:21:28.240Z,5.90
2019-05-14T05:23:58.948Z,6.05
2019-05-14T05:26:33.643Z,6.62
2019-05-14T05:29:10.547Z,6.97
2019-05-14T05:31:49.451Z,6.65
2019-05-14T05:34:20.832Z,6.87
2019-05-14T05:36:52.420Z,7.05
2019-05-14T05:39:24.180Z,6.80
2019-05-14T05:42:02.055Z,6.92
2019-05-14T05:44:34.180Z,6.33
2019-05-14T05:47:05.412Z,6.78
2019-05-14T05:49:40.021Z,7.03
2019-05-14T05:52:12.724Z,6.78
2019-05-14T05:54:44.240Z,7.22
2019-05-14T05:57:18.869Z,7.45
2019-05-14T05:59:51.889Z,7.12
2019-05-14T06:02:23.346Z,6.15
2019-05-14T06:04:59.339Z,6.30
2019-05-14T06:07:30.607Z,7.15
2019-05-14T06:10:03.571Z,6.10
2019-05-14T06:12:34.720Z,6.72
2019-05-14T06:15:08.698Z,6.00
2019-05-14T06:17:39.871Z,5.67
2019-05-14T06:20:11.348Z,6.30
2019-05-14T06:22:42.635Z,6.55
2019-05-14T06:25:13.936Z,6.65
2019-05-14T06:27:44.837Z,6.70
2019-05-14T06:30:18.295Z,6.40
2019-05-14T06:32:49.531Z,5.67
2019-05-14T06:35:21.100Z,6.20
2019-05-14T06:37:52.346Z,6.67
2019-05-14T06:40:23.783Z,6.75
2019-05-14T06:42:59.172Z,6.45
2019-05-14T06:45:30.896Z,6.20
2019-05-14T06:48:03.914Z,6.00
2019-05-14T06:50:39.438Z,5.45
2019-05-14T06:53:24.150Z,5.62
2019-05-14T06:55:55.486Z,6.53
2019-05-14T06:58:29.528Z,7.25
2019-05-14T07:00:59.639Z,7.80
2019-05-14T07:03:34.436Z,6.42
2019-05-14T07:06:05.553Z,6.42
2019-05-14T07:08:40.226Z,5.37
2019-05-14T07:11:15.391Z,4.95
2019-05-14T07:13:48.870Z,5.58
2019-05-14T07:16:20.499Z,6.30
2019-05-14T07:18:54.113Z,6.35
2019-05-14T07:21:25.297Z,5.92
2019-05-14T07:23:59.128Z,5.65
2019-05-14T07:26:32.186Z,6.83
2019-05-14T07:29:03.580Z,6.10
2019-05-14T07:31:34.716Z,7.47
2019-05-14T07:34:09.190Z,7.12
2019-05-14T07:36:40.475Z,5.72
2019-05-14T07:39:12.038Z,5.70
2019-05-14T07:41:43.521Z,5.22
2019-05-14T07:44:14.991Z,5.97
2019-05-14T07:46:48.336Z,6.83
2019-05-14T07:49:19.933Z,6.50
2019-05-14T07:51:51.131Z,5.87
2019-05-14T07:54:22.032Z,5.28
2019-05-14T07:56:53.181Z,5.58
2019-05-14T07:59:24.592Z,5.37
2019-05-14T08:02:01.275Z,5.25
2019-05-14T08:04:32.502Z,6.20
2019-05-14T08:07:11.023Z,6.08
2019-05-14T08:09:44.091Z,5.45
2019-05-14T08:12:19.206Z,5.92
2019-05-14T08:15:13.173Z,5.75
2019-05-14T08:17:23.619Z,6.60
2019-05-14T08:19:55.300Z,6.15
2019-05-14T08:22:26.372Z,5.30
2019-05-14T08:24:58.083Z,5.33
2019-05-14T08:27:32.466Z,5.30
2019-05-14T08:30:03.705Z,6.10
2019-05-14T08:32:35.218Z,5.55
2019-05-14T08:35:09.074Z,5.67
2019-05-14T08:37:49.176Z,5.95
2019-05-14T08:40:23.302Z,5.47
2019-05-14T08:42:58.220Z,5.70
2019-05-14T08:45:32.178Z,5.53
2019-05-14T08:48:05.350Z,5.72
2019-05-14T08:50:38.807Z,5.50
2019-05-14T08:53:14.226Z,6.03
2019-05-14T08:55:44.115Z,5.60
2019-05-14T08:58:20.289Z,5.70
2019-05-14T09:00:51.859Z,6.85
2019-05-14T09:03:23.097Z,6.03
2019-05-14T09:06:00.693Z,6.28
2019-05-14T09:08:30.287Z,5.03
2019-05-14T09:11:02.869Z,6.10
2019-05-14T09:13:41.456Z,6.67
2019-05-14T09:16:43.210Z,5.92
2019-05-14T09:19:08.759Z,6.62
2019-05-14T09:21:40.418Z,6.45
2019-05-14T09:24:14.988Z,6.00
2019-05-14T09:26:48.618Z,5.42
2019-05-14T09:29:25.801Z,6.60
2019-05-14T09:31:52.808Z,6.22
2019-05-14T09:34:28.987Z,6.28
2019-05-14T09:37:02.563Z,6.45
2019-05-14T09:39:35.482Z,6.17
2019-05-14T09:42:08.127Z,5.87
2019-05-14T09:44:39.437Z,6.37
2019-05-14T09:47:12.015Z,6.30
2019-05-14T09:49:42.962Z,6.17
2019-05-14T09:52:14.325Z,6.42
2019-05-14T09:54:46.224Z,5.85
2019-05-14T09:57:18.929Z,5.05
2019-05-14T09:59:50.639Z,5.40
2019-05-14T10:02:22.584Z,4.90
2019-05-14T10:14:51.796Z,5.15
2019-05-14T10:17:22.957Z,5.22
2019-05-14T10:19:54.419Z,5.08
2019-05-14T10:22:25.678Z,5.20
2019-05-14T10:24:58.260Z,4.33
2019-05-14T10:27:29.428Z,5.55
2019-05-14T10:30:01.231Z,5.83
2019-05-14T10:32:32.643Z,5.30
2019-05-14T10:35:04.067Z,5.30
2019-05-14T10:37:35.514Z,4.47
2019-05-14T10:40:10.468Z,4.47
2019-05-14T10:42:43.435Z,4.03
2019-05-14T10:45:15.252Z,4.62
2019-05-14T10:47:49.251Z,4.22
2019-05-14T10:50:20.100Z,4.50
2019-05-14T10:52:51.168Z,4.90
2019-05-14T10:55:23.562Z,4.65
2019-05-14T10:57:54.667Z,5.55
2019-05-14T11:00:28.386Z,5.08
2019-05-14T11:02:58.961Z,5.33
2019-05-14T11:05:30.091Z,4.80
2019-05-14T11:08:01.556Z,4.55
2019-05-14T11:10:32.607Z,4.95
2019-05-14T11:13:08.951Z,4.55
2019-05-14T11:15:39.624Z,3.92
2019-05-14T11:18:11.046Z,3.60
2019-05-14T11:20:42.423Z,3.70
2019-05-14T11:23:15.225Z,3.92
2019-05-14T11:25:48.602Z,3.67
2019-05-14T11:28:19.095Z,4.42
2019-05-14T11:30:50.317Z,4.50
2019-05-14T11:33:21.314Z,3.65
2019-05-14T11:35:52.673Z,3.80
2019-05-14T11:38:33.347Z,4.35
2019-05-14T11:40:58.697Z,4.30
2019-05-14T11:43:29.072Z,4.25
2019-05-14T11:46:00.244Z,4.10
2019-05-14T11:48:31.413Z,4.50
2019-05-14T11:51:02.653Z,4.67
2019-05-14T11:53:38.559Z,3.85
2019-05-14T11:56:09.408Z,4.50
2019-05-14T11:58:40.749Z,4.17
2019-05-14T12:01:11.709Z,4.20
2019-05-14T12:03:44.981Z,4.10
2019-05-14T12:06:18.617Z,4.58
2019-05-14T12:08:49.895Z,4.20
2019-05-14T12:11:20.699Z,3.75
2019-05-14T12:13:51.705Z,4.40
2019-05-14T12:16:22.662Z,4.42
2019-05-14T12:18:53.576Z,4.62
2019-05-14T12:21:24.812Z,4.70
2019-05-14T12:24:03.096Z,4.65
2019-05-14T12:26:28.392Z,4.92
2019-05-14T12:28:59.572Z,5.62
2019-05-14T12:31:30.669Z,5.40
2019-05-14T12:34:03.092Z,5.72
2019-05-14T12:36:34.081Z,5.53
2019-05-14T12:39:09.298Z,5.35
2019-05-14T12:41:39.027Z,4.30
2019-05-14T12:44:10.029Z,4.25
2019-05-14T12:46:40.943Z,4.28
2019-05-14T12:49:11.967Z,5.00
2019-05-14T12:51:43.075Z,4.75
2019-05-14T12:54:14.260Z,4.20
2019-05-14T12:56:45.076Z,4.12
2019-05-14T12:59:16.301Z,4.78
2019-05-14T13:01:49.199Z,4.60
2019-05-14T13:04:20.074Z,4.55
2019-05-14T13:06:51.423Z,4.55
2019-05-14T13:09:22.522Z,4.75
2019-05-14T13:11:53.391Z,4.67
2019-05-14T13:14:24.625Z,4.40
2019-05-14T13:16:55.763Z,4.90
2019-05-14T13:19:28.351Z,4.30
2019-05-14T13:22:12.242Z,4.17
2019-05-14T13:24:31.416Z,4.78
2019-05-14T13:27:02.452Z,4.22
2019-05-14T13:29:33.503Z,4.85
2019-05-14T13:32:04.601Z,5.20
2019-05-14T13:34:35.634Z,5.12
2019-05-14T13:37:06.720Z,5.58
2019-05-14T13:39:39.922Z,5.25
2019-05-14T13:42:12.078Z,4.92
2019-05-14T13:44:42.582Z,4.87
2019-05-14T13:47:13.585Z,5.08
2019-05-14T13:49:44.802Z,4.80
2019-05-14T13:52:18.529Z,5.03
2019-05-14T13:54:48.785Z,5.33
2019-05-14T13:57:19.731Z,5.45
2019-05-14T13:59:50.803Z,5.20
2019-05-14T14:02:21.920Z,4.85
2019-05-14T14:04:53.002Z,4.37
2019-05-14T14:07:23.851Z,4.33
2019-05-14T14:09:54.960Z,5.10
2019-05-14T14:12:31.802Z,4.70
2019-05-14T14:14:58.728Z,5.12
2019-05-14T14:17:30.031Z,5.15
2019-05-14T14:20:00.951Z,5.30
2019-05-14T14:22:31.929Z,4.67
2019-05-14T14:25:02.964Z,5.50
2019-05-14T14:27:34.444Z,5.35
2019-05-14T14:30:09.267Z,6.00
2019-05-14T14:32:40.552Z,5.28
2019-05-14T14:35:12.415Z,5.87
2019-05-14T14:37:43.553Z,6.45
2019-05-14T14:40:14.720Z,6.47
2019-05-14T14:42:49.251Z,6.28
2019-05-14T14:45:21.680Z,7.28
2019-05-14T14:47:53.062Z,6.62
2019-05-14T14:50:24.237Z,7.25
2019-05-14T14:52:55.177Z,6.08
2019-05-14T14:55:26.048Z,6.28
2019-05-14T14:57:57.082Z,7.00
2019-05-14T15:00:29.428Z,7.33
2019-05-14T15:03:00.411Z,5.97
2019-05-14T15:05:32.404Z,6.97
2019-05-14T15:08:03.317Z,6.10
2019-05-14T15:10:35.017Z,7.35
2019-05-14T15:13:06.206Z,6.90
2019-05-14T15:15:39.248Z,7.35
2019-05-14T15:18:12.017Z,7.45
2019-05-14T15:20:42.392Z,6.30
2019-05-14T15:23:13.578Z,6.78
2019-05-14T15:25:44.778Z,6.35
2019-05-14T15:28:18.736Z,6.33
2019-05-14T15:30:49.956Z,6.62
2019-05-14T15:33:20.671Z,5.60
2019-05-14T15:35:51.839Z,6.78
2019-05-14T15:38:22.833Z,7.00
2019-05-14T15:40:53.965Z,7.75
2019-05-14T15:43:25.197Z,7.20
2019-05-14T15:45:55.895Z,7.28
2019-05-14T15:48:27.118Z,7.03
2019-05-14T15:50:59.991Z,8.13
2019-05-14T15:53:30.937Z,7.53
2019-05-14T15:56:03.214Z,8.23
2019-05-14T15:58:34.319Z,8.53
2019-05-14T16:01:06.207Z,8.58
2019-05-14T16:03:41.393Z,7.83
2019-05-14T16:06:10.615Z,8.08
2019-05-14T16:08:44.543Z,8.18
2019-05-14T16:11:18.369Z,7.45
2019-05-14T16:13:49.455Z,8.18
2019-05-14T16:16:22.114Z,7.37
2019-05-14T16:18:53.874Z,8.33
2019-05-14T16:21:25.038Z,7.90
2019-05-14T16:23:58.696Z,7.30
2019-05-14T16:26:29.344Z,7.30
2019-05-14T16:29:00.580Z,7.35
2019-05-14T16:31:41.897Z,6.40
2019-05-14T16:34:09.812Z,7.42
2019-05-14T16:36:41.429Z,7.10
2019-05-14T16:39:12.701Z,7.40
2019-05-14T16:41:43.618Z,6.58
2019-05-14T16:44:14.729Z,5.95
2019-05-14T16:46:46.486Z,7.33
2019-05-14T16:49:18.529Z,6.58
2019-05-14T16:51:50.270Z,6.90
2019-05-14T16:54:21.516Z,6.37
2019-05-14T16:56:52.585Z,6.83
2019-05-14T16:59:23.686Z,6.95
2019-05-14T17:01:54.568Z,6.53
2019-05-14T17:04:25.761Z,6.90
2019-05-14T17:06:58.963Z,6.92
2019-05-14T17:09:28.988Z,7.62
2019-05-14T17:12:01.344Z,7.17
2019-05-14T17:14:32.609Z,7.00
2019-05-14T17:17:03.429Z,6.28
2019-05-14T17:19:34.720Z,6.33
2019-05-14T17:22:23.254Z,5.85
2019-05-14T17:24:39.850Z,6.72
2019-05-14T17:27:10.642Z,7.42
2019-05-14T17:29:41.627Z,6.67
2019-05-14T17:32:12.575Z,7.47
2019-05-14T17:34:43.554Z,7.28
2019-05-14T17:37:14.764Z,7.95
2019-05-14T17:39:45.625Z,7.62
2019-05-14T17:42:19.107Z,8.33
2019-05-14T17:44:49.103Z,7.75
2019-05-14T17:47:19.980Z,7.70
2019-05-14T17:49:50.875Z,7.00
2019-05-14T17:52:22.212Z,7.97
2019-05-14T17:54:54.721Z,7.97
2019-05-14T17:57:26.102Z,7.40
2019-05-14T17:59:58.363Z,8.35
2019-05-14T18:02:30.476Z,7.85
2019-05-14T18:05:01.824Z,6.70
2019-05-14T18:07:34.480Z,5.85
2019-05-14T18:10:08.779Z,7.08
2019-05-14T18:12:40.092Z,6.72
2019-05-14T18:15:11.335Z,6.50
2019-05-14T18:17:43.561Z,7.08
2019-05-14T18:20:14.941Z,7.35
2019-05-14T18:22:45.968Z,7.75
2019-05-14T18:25:18.346Z,8.80
2019-05-14T18:27:50.296Z,7.70
2019-05-14T18:30:21.411Z,8.43
2019-05-14T18:32:52.739Z,8.30
2019-05-14T18:35:23.779Z,7.85
2019-05-14T18:37:54.779Z,8.60
2019-05-14T18:40:27.986Z,8.83
2019-05-14T18:42:59.047Z,9.28
2019-05-14T18:45:30.417Z,9.13
2019-05-14T18:48:01.492Z,9.85
2019-05-14T18:50:32.609Z,9.15
2019-05-14T18:53:03.908Z,10.88
2019-05-14T18:55:34.755Z,10.95
2019-05-14T18:58:05.808Z,10.55
2019-05-14T19:00:38.849Z,9.95
2019-05-14T19:03:09.251Z,10.32
2019-05-14T19:05:40.466Z,10.68
2019-05-14T19:08:11.227Z,9.80
2019-05-14T19:10:42.279Z,10.78
2019-05-14T19:13:13.339Z,10.05
2019-05-14T19:15:44.598Z,10.50
2019-05-14T19:18:15.608Z,10.23
2019-05-14T19:20:48.433Z,11.03
2019-05-14T19:23:18.945Z,11.15
2019-05-14T19:25:50.036Z,11.57
2019-05-14T19:28:20.914Z,11.78
2019-05-14T19:30:51.912Z,10.48
2019-05-14T19:33:22.874Z,11.40
2019-05-14T19:35:53.899Z,11.55
2019-05-14T19:38:25.077Z,12.78
2019-05-14T19:40:55.901Z,12.63
2019-05-14T19:43:28.988Z,11.93
2019-05-14T19:45:59.163Z,12.20
2019-05-14T19:48:32.765Z,12.55
2019-05-14T19:51:02.835Z,11.08
2019-05-14T19:53:33.930Z,12.43
2019-05-14T19:56:04.875Z,12.88
2019-05-14T19:58:38.165Z,13.50
2019-05-14T20:01:09.267Z,12.93
2019-05-14T20:03:40.667Z,12.73
2019-05-14T20:06:11.664Z,14.28
2019-05-14T20:08:42.789Z,14.15
2019-05-14T20:11:13.759Z,13.72
2019-05-14T20:13:44.823Z,14.85
2019-05-14T20:16:18.289Z,14.40
2019-05-14T20:18:48.895Z,14.18
2019-05-14T20:21:20.304Z,14.98
2019-05-14T20:23:54.320Z,13.90
2019-05-14T20:26:28.156Z,14.35
2019-05-14T20:28:59.134Z,14.85
2019-05-14T20:31:30.081Z,15.32
2019-05-14T20:34:00.979Z,15.18
2019-05-14T20:36:32.297Z,14.70
2019-05-14T20:39:03.219Z,15.58
2019-05-14T20:41:34.306Z,16.85
2019-05-14T20:44:07.822Z,16.10
2019-05-14T20:46:38.673Z,15.60
2019-05-14T20:49:09.679Z,17.07
2019-05-14T20:51:40.901Z,15.85
2019-05-14T20:54:12.153Z,17.70
2019-05-14T20:56:43.252Z,17.30
2019-05-14T20:59:14.547Z,17.23
2019-05-14T21:01:45.609Z,17.05
2019-05-14T21:04:18.700Z,17.25
2019-05-14T21:06:49.031Z,16.77
2019-05-14T21:09:23.610Z,16.70
2019-05-14T21:11:54.604Z,17.50
2019-05-14T21:14:25.770Z,17.07
2019-05-14T21:16:57.629Z,17.30
2019-05-14T21:19:28.740Z,18.12
2019-05-14T21:22:01.153Z,18.45
2019-05-14T21:24:32.294Z,18.02
2019-05-14T21:27:06.385Z,16.77
2019-05-14T21:29:38.223Z,17.85
2019-05-14T21:32:09.567Z,17.50
2019-05-14T21:34:40.539Z,17.35
2019-05-14T21:37:11.655Z,17.32
2019-05-14T21:39:42.840Z,16.95
2019-05-14T21:42:13.653Z,17.30
2019-05-14T21:44:45.948Z,17.15
2019-05-14T21:47:16.981Z,16.32
2019-05-14T21:49:48.381Z,16.95
2019-05-14T21:52:19.553Z,15.28
2019-05-14T21:54:50.623Z,16.60
2019-05-14T21:57:21.409Z,16.37
2019-05-14T21:59:52.617Z,16.32
2019-05-14T22:02:27.468Z,16.40
2019-05-14T22:04:58.254Z,15.58
2019-05-14T22:07:28.612Z,14.18
2019-05-14T22:10:00.009Z,14.73
2019-05-14T22:12:31.382Z,15.78
2019-05-14T22:15:02.470Z,15.78
2019-05-14T22:17:33.425Z,15.60
2019-05-14T22:20:08.105Z,15.23
2019-05-14T22:22:39.114Z,15.75
2019-05-14T22:25:10.621Z,16.23
2019-05-14T22:27:41.561Z,17.20
2019-05-14T22:30:12.842Z,17.32
2019-05-14T22:32:44.244Z,16.55
2019-05-14T22:35:18.535Z,16.73
2019-05-14T22:37:48.821Z,16.05
2019-05-14T22:40:19.853Z,15.83
2019-05-14T22:42:50.684Z,17.50
2019-05-14T22:45:21.882Z,17.92
2019-05-14T22:47:52.660Z,16.67
2019-05-14T22:50:23.863Z,17.35
2019-05-14T22:52:54.770Z,19.32
2019-05-14T22:55:25.660Z,19.15
2019-05-14T22:57:58.981Z,18.87
2019-05-14T23:00:29.232Z,17.90
2019-05-14T23:03:00.264Z,17.75
2019-05-14T23:05:31.448Z,18.30
2019-05-14T23:08:02.663Z,17.98
2019-05-14T23:10:33.564Z,18.37
2019-05-14T23:13:04.790Z,19.87
2019-05-14T23:15:35.815Z,18.25
2019-05-14T23:18:08.553Z,18.75
2019-05-14T23:20:39.424Z,20.37
2019-05-14T23:23:10.603Z,20.10
2019-05-14T23:25:44.601Z,19.57
2019-05-14T23:28:15.498Z,18.75
2019-05-14T23:30:48.115Z,19.40
2019-05-14T23:33:19.308Z,17.87
2019-05-14T23:35:50.282Z,19.32
2019-05-14T23:38:21.640Z,19.52
2019-05-14T23:40:52.676Z,18.82
2019-05-14T23:43:23.905Z,17.32
2019-05-14T23:45:54.923Z,17.70
2019-05-14T23:48:29.040Z,19.57
2019-05-14T23:51:02.146Z,17.55
2019-05-14T23:53:36.013Z,18.85
2019-05-14T23:56:08.561Z,17.15
2019-05-14T23:58:54.019Z,18.60
